Time;durP1;ratioP1;P1;durP2;ratioP2;P2;SDS_P1;SDS_P2;PMS_P1;PMS_P2;Temp;Humidity;BMP_temperature;BMP_pressure;BME280_temperature;BME280_humidity;BME280_pressure;Samples;Min_cycle;Max_cycle;Signal;HPM_P1;HPM_P2
2022/07/19 00:00:46;;;;;;;3.47;3.27;;;20.10;62.20;;;20.55;49.50;95591.78;5047048;28;20536;-57
2022/07/19 00:03:13;;;;;;;4.60;3.57;;;20.00;62.00;;;20.55;50.28;95586.44;5050329;28;20539;-57
2022/07/19 00:05:41;;;;;;;3.60;3.30;;;20.10;62.60;;;20.55;50.37;95591.78;5048149;28;20548;-66
2022/07/19 00:08:08;;;;;;;4.43;3.00;;;20.00;62.60;;;20.52;50.82;95581.44;5053432;28;20524;-65
2022/07/19 00:10:35;;;;;;;3.43;3.13;;;20.00;63.20;;;20.50;50.61;95580.81;5047754;28;20475;-58
2022/07/19 00:13:03;;;;;;;5.20;3.20;;;20.00;63.30;;;20.48;50.93;95582.81;5047459;28;20964;-58
2022/07/19 00:15:30;;;;;;;5.73;3.53;;;20.00;63.70;;;20.46;50.80;95583.00;5046613;28;20549;-59
2022/07/19 00:17:58;;;;;;;7.23;3.10;;;20.00;63.80;;;20.47;50.73;95583.84;5046493;28;21059;-58
2022/07/19 00:20:26;;;;;;;4.60;2.70;;;20.00;63.50;;;20.46;50.98;95582.19;5048493;28;20464;-65
2022/07/19 00:22:53;;;;;;;5.63;3.00;;;20.00;64.60;;;20.41;51.40;95580.06;5041927;28;20580;-64
2022/07/19 00:25:20;;;;;;;14.50;2.40;;;19.90;64.30;;;20.39;51.64;95580.25;5046375;28;20879;-66
2022/07/19 00:27:48;;;;;;;2.63;2.43;;;19.90;64.30;;;20.36;51.89;95577.94;5045536;28;20464;-67
2022/07/19 00:30:15;;;;;;;4.83;1.97;;;19.90;65.20;;;20.35;51.80;95581.63;5051302;28;20462;-58
2022/07/19 00:32:42;;;;;;;2.97;2.67;;;19.90;65.40;;;20.34;52.36;95581.81;5046056;28;20456;-65
2022/07/19 00:35:11;;;;;;;4.13;2.83;;;19.90;65.20;;;20.33;51.83;95582.84;5049730;28;21103;-65
2022/07/19 00:37:38;;;;;;;2.60;2.50;;;19.90;65.50;;;20.31;51.95;95583.00;5048683;28;20601;-65
2022/07/19 00:40:08;;;;;;;3.20;2.60;;;19.80;65.30;;;20.29;52.92;95577.00;5047202;28;20467;-59
2022/07/19 00:42:35;;;;;;;2.83;2.63;;;19.80;66.40;;;20.28;52.91;95582.53;5047042;28;20488;-59
2022/07/19 00:45:02;;;;;;;7.20;3.00;;;19.80;66.50;;;20.25;52.85;95581.06;5046413;28;20484;-58
2022/07/19 00:47:29;;;;;;;3.10;2.90;;;19.80;66.40;;;20.24;52.97;95579.41;5047137;28;20487;-57
2022/07/19 00:49:56;;;;;;;2.87;2.40;;;19.80;66.40;;;20.23;52.65;95577.72;5048281;28;20852;-58
2022/07/19 00:52:25;;;;;;;6.73;2.93;;;19.80;66.40;;;20.20;52.72;95578.94;5046601;28;20479;-65
2022/07/19 00:54:53;;;;;;;2.13;1.90;;;19.70;66.30;;;20.18;53.32;95577.47;5043375;28;20513;-58
2022/07/19 00:57:20;;;;;;;2.10;2.00;;;19.70;67.20;;;20.15;52.89;95580.50;5046053;28;20471;-57
2022/07/19 00:59:50;;;;;;;6.13;2.20;;;19.70;67.00;;;20.12;53.66;95580.84;5045787;28;20546;-58
2022/07/19 01:02:17;;;;;;;4.40;1.77;;;19.70;68.30;;;20.09;53.39;95575.88;5046506;28;20558;-65
2022/07/19 01:04:44;;;;;;;2.40;1.83;;;19.60;67.90;;;20.07;53.74;95568.06;5049910;28;20925;-65
2022/07/19 01:07:11;;;;;;;2.87;2.67;;;19.60;67.60;;;20.05;53.27;95570.91;5047788;28;20483;-58
2022/07/19 01:09:40;;;;;;;2.87;2.10;;;19.60;67.50;;;20.03;53.45;95570.25;5044791;28;21045;-65
2022/07/19 01:12:08;;;;;;;3.00;2.80;;;19.60;68.00;;;20.02;53.34;95571.25;5047402;28;20472;-57
2022/07/19 01:14:36;;;;;;;18.80;2.77;;;19.60;67.70;;;20.01;54.08;95569.59;5048449;28;20459;-58
2022/07/19 01:17:03;;;;;;;7.63;1.97;;;19.60;68.70;;;19.98;54.59;95569.13;5046794;28;20967;-65
2022/07/19 01:19:31;;;;;;;4.13;2.30;;;19.50;69.10;;;19.95;53.83;95570.31;5045291;28;20888;-66
2022/07/19 01:22:00;;;;;;;2.07;1.70;;;19.50;68.70;;;19.95;54.04;95566.81;5048040;28;20482;-64
2022/07/19 01:24:27;;;;;;;2.70;1.97;;;19.50;68.80;;;19.94;54.15;95566.00;5046941;28;20489;-65
2022/07/19 01:26:54;;;;;;;4.43;1.93;;;19.50;69.50;;;19.94;54.06;95573.16;5048442;28;20475;-59
2022/07/19 01:29:22;;;;;;;4.20;2.10;;;19.50;69.20;;;19.89;54.72;95563.03;5046728;28;20509;-58
2022/07/19 01:31:49;;;;;;;4.60;2.07;;;19.40;69.50;;;19.88;54.69;95562.22;5048939;28;20609;-65
2022/07/19 01:34:16;;;;;;;3.67;1.63;;;19.40;69.30;;;19.87;54.44;95568.56;5045901;28;21021;-66
2022/07/19 01:36:44;;;;;;;2.47;2.37;;;19.40;69.50;;;19.85;54.17;95559.09;5047056;28;20506;-66
2022/07/19 01:39:12;;;;;;;8.37;2.07;;;19.40;69.70;;;19.84;54.39;95563.56;5047958;28;20529;-60
2022/07/19 01:41:40;;;;;;;8.63;2.03;;;19.40;70.00;;;19.82;54.81;95559.44;5050131;28;20548;-59
2022/07/19 01:44:07;;;;;;;2.00;1.90;;;19.40;70.00;;;19.83;54.48;95566.41;5045201;28;20452;-60
2022/07/19 01:46:34;;;;;;;7.20;2.00;;;19.40;70.10;;;19.82;55.17;95562.94;5048637;28;20491;-66
2022/07/19 01:49:01;;;;;;;1.93;1.33;;;19.40;70.70;;;19.85;54.63;95561.75;5049182;28;20616;-65
2022/07/19 01:51:29;;;;;;;1.93;1.77;;;19.40;70.90;;;19.90;55.49;95561.22;5046800;28;20518;-65
2022/07/19 01:53:56;;;;;;;4.87;2.00;;;19.40;70.90;;;19.92;54.56;95565.34;5044996;28;20460;-58
2022/07/19 01:56:25;;;;;;;2.70;2.30;;;19.40;70.80;;;19.95;54.78;95559.63;5044649;28;20496;-65
2022/07/19 01:58:52;;;;;;;6.13;2.60;;;19.50;70.90;;;19.99;54.73;95560.94;5049785;28;20460;-57
2022/07/19 02:01:19;;;;;;;3.63;2.03;;;19.50;71.20;;;20.02;54.65;95563.25;5046952;28;20475;-64
2022/07/19 02:03:46;;;;;;;3.13;2.03;;;19.50;70.90;;;20.05;55.19;95564.75;5044269;28;20593;-66
2022/07/19 02:06:13;;;;;;;2.13;1.90;;;19.50;70.90;;;20.05;54.33;95568.22;5048704;28;20545;-67
2022/07/19 02:08:41;;;;;;;4.20;2.50;;;19.50;70.60;;;20.04;54.85;95560.41;5043692;28;20456;-66
2022/07/19 02:13:51;;;;;;;6.37;2.50;;;19.50;71.00;;;19.99;54.95;95558.28;5045899;28;20456;-66
2022/07/19 02:16:18;;;;;;;3.10;2.30;;;19.50;71.30;;;19.97;54.66;95572.81;5046012;28;21046;-66
2022/07/19 02:18:45;;;;;;;6.60;2.30;;;19.50;71.00;;;19.93;54.74;95574.19;5046152;28;20459;-66
2022/07/19 02:21:12;;;;;;;4.57;2.03;;;19.40;71.40;;;19.88;54.68;95575.56;5043573;28;20479;-66
2022/07/19 02:23:40;;;;;;;2.67;2.27;;;19.40;71.10;;;19.85;55.54;95567.09;5046057;28;20471;-66
2022/07/19 02:26:07;;;;;;;2.97;1.80;;;19.40;71.70;;;19.83;54.82;95566.41;5045159;28;21039;-59
2022/07/19 02:28:34;;;;;;;2.27;2.13;;;19.40;71.60;;;19.81;55.51;95573.78;5048574;28;20856;-66
2022/07/19 02:31:03;;;;;;;3.17;2.47;;;19.30;71.30;;;19.78;55.55;95569.63;5048563;28;20487;-59
2022/07/19 02:33:31;;;;;;;4.43;2.10;;;19.30;71.90;;;19.76;55.67;95576.97;5046344;28;20456;-65
2022/07/19 02:35:58;;;;;;;5.30;2.50;;;19.30;72.00;;;19.76;55.34;95578.81;5046544;28;20472;-58
2022/07/19 02:38:25;;;;;;;15.40;3.07;;;19.30;72.10;;;19.73;55.85;95568.50;5044485;28;20456;-64
2022/07/19 02:40:52;;;;;;;2.83;2.63;;;19.30;72.60;;;19.70;56.20;95577.69;5046443;28;20475;-66
2022/07/19 02:43:19;;;;;;;6.90;2.93;;;19.20;72.40;;;19.68;55.31;95575.19;5045668;28;20525;-58
2022/07/19 02:45:47;;;;;;;10.20;2.23;;;19.20;72.40;;;19.66;55.80;95577.22;5047632;28;20527;-65
2022/07/19 02:48:15;;;;;;;5.03;2.43;;;19.20;72.50;;;19.65;55.29;95580.06;5041309;28;20829;-59
2022/07/19 02:50:43;;;;;;;2.43;2.33;;;19.20;72.50;;;19.64;56.02;95589.94;5046700;28;20550;-65
2022/07/19 02:53:10;;;;;;;6.73;2.53;;;19.20;72.50;;;19.64;55.52;95587.25;5046835;28;20460;-58
2022/07/19 02:55:37;;;;;;;5.67;2.53;;;19.20;73.00;;;19.65;55.73;95583.56;5044665;28;20542;-68
2022/07/19 02:58:04;;;;;;;5.50;2.00;;;19.20;73.00;;;19.67;55.80;95594.06;5047875;28;20596;-65
2022/07/19 03:00:32;;;;;;;3.97;1.90;;;19.20;72.80;;;19.66;55.95;95593.25;5041328;28;20906;-65
2022/07/19 03:03:43;;;;;;;2.03;1.83;;;19.20;73.00;;;19.66;55.84;95592.41;5049144;28;20455;-65
2022/07/19 03:05:48;;;;;;;4.37;1.93;;;19.20;73.20;;;19.63;56.03;95598.94;5043161;28;20503;-65
2022/07/19 03:08:15;;;;;;;2.40;1.90;;;19.20;73.10;;;19.61;56.16;95594.78;5047066;28;20510;-58
2022/07/19 03:10:42;;;;;;;4.13;2.30;;;19.10;73.10;;;19.61;56.14;95598.28;5046555;28;20475;-64
2022/07/19 03:13:10;;;;;;;2.47;2.27;;;19.10;73.10;;;19.60;55.92;95595.78;5044522;28;20491;-65
2022/07/19 03:15:37;;;;;;;5.10;2.90;;;19.10;73.20;;;19.59;55.93;95600.28;5044333;28;21001;-58
2022/07/19 03:18:04;;;;;;;4.73;2.73;;;19.10;73.10;;;19.60;55.18;95595.78;5047175;28;20513;-58
2022/07/19 03:20:31;;;;;;;7.43;3.33;;;19.10;72.90;;;19.59;55.98;95596.78;5043100;28;20483;-58
2022/07/19 03:23:00;;;;;;;10.13;3.03;;;19.10;73.00;;;19.58;55.93;95606.66;5045475;28;20456;-64
2022/07/19 03:25:27;;;;;;;5.33;2.70;;;19.10;73.10;;;19.57;55.36;95606.81;5048543;28;21026;-59
2022/07/19 03:27:54;;;;;;;9.10;2.63;;;19.10;73.00;;;19.55;55.34;95607.00;5048544;28;21207;-58
2022/07/19 03:30:22;;;;;;;8.50;2.17;;;19.10;73.20;;;19.50;55.73;95601.34;5049059;28;20524;-60
2022/07/19 03:32:50;;;;;;;3.90;2.77;;;19.00;73.30;;;19.47;55.71;95602.56;5052694;28;20489;-65
2022/07/19 03:35:17;;;;;;;5.27;2.83;;;19.00;73.60;;;19.48;56.21;95614.03;5049931;28;20459;-66
2022/07/19 03:37:44;;;;;;;4.23;3.33;;;19.00;73.80;;;19.48;56.18;95611.38;5048022;28;20460;-65
2022/07/19 03:40:13;;;;;;;4.77;2.70;;;19.00;73.80;;;19.48;55.90;95617.53;5052354;28;20455;-66
2022/07/19 03:42:40;;;;;;;7.87;3.27;;;19.00;73.90;;;19.48;56.15;95628.19;5052641;28;21038;-65
2022/07/19 03:45:09;;;;;;;4.10;2.70;;;19.00;73.90;;;19.49;55.75;95624.53;5052967;28;20553;-58
2022/07/19 03:47:36;;;;;;;7.37;3.40;;;19.00;74.00;;;19.50;55.73;95620.88;5047671;28;20884;-67
2022/07/19 03:50:04;;;;;;;3.13;2.93;;;19.00;74.00;;;19.50;55.69;95625.38;5048320;28;20509;-65
2022/07/19 03:52:31;;;;;;;6.27;2.83;;;19.00;73.90;;;19.50;56.18;95620.03;5044783;28;20463;-60
2022/07/19 03:54:58;;;;;;;10.83;3.30;;;19.00;74.00;;;19.50;55.89;95625.38;5048131;28;20451;-57
2022/07/19 03:57:27;;;;;;;3.30;3.00;;;19.00;74.30;;;19.50;56.42;95625.38;5047549;28;20491;-57
2022/07/19 03:59:54;;;;;;;9.93;4.20;;;19.00;74.10;;;19.50;55.56;95636.88;5047840;28;20460;-64
2022/07/19 04:02:22;;;;;;;3.43;3.13;;;19.10;74.00;;;19.52;55.36;95634.03;5046998;28;20540;-59
2022/07/19 04:04:49;;;;;;;7.97;5.13;;;19.00;73.80;;;19.51;55.67;95633.19;5046651;28;20452;-66
2022/07/19 04:07:16;;;;;;;4.53;3.10;;;19.00;73.80;;;19.50;55.77;95636.03;5047786;28;20479;-58
2022/07/19 04:09:43;;;;;;;5.80;3.60;;;19.00;74.10;;;19.50;55.71;95638.69;5046735;28;20456;-58
2022/07/19 04:12:10;;;;;;;7.40;3.30;;;19.00;73.90;;;19.50;56.30;95636.03;5043122;28;20476;-59
2022/07/19 04:14:39;;;;;;;8.53;3.47;;;19.00;74.30;;;19.53;56.29;95635.69;5043609;28;20456;-59
2022/07/19 04:17:06;;;;;;;10.33;3.70;;;19.00;75.40;;;19.53;56.57;95635.69;5045046;28;20484;-67
2022/07/19 04:19:35;;;;;;;4.97;3.03;;;19.10;75.00;;;19.56;55.88;95639.84;5045718;28;20521;-67
2022/07/19 04:22:02;;;;;;;6.47;3.57;;;19.10;74.80;;;19.58;56.54;95644.00;5050876;28;20545;-59
2022/07/19 04:24:29;;;;;;;9.03;3.50;;;19.10;74.90;;;19.58;56.27;95633.34;5047326;28;20840;-66
2022/07/19 04:26:56;;;;;;;11.23;4.07;;;19.10;75.00;;;19.60;56.14;95641.97;5049072;28;20869;-59
2022/07/19 04:29:23;;;;;;;5.87;4.27;;;19.10;75.00;;;19.64;55.95;95642.44;5048277;28;20492;-66
2022/07/19 04:31:52;;;;;;;10.27;3.50;;;19.20;75.20;;;19.64;56.17;95632.63;5046290;28;20487;-66
2022/07/19 04:34:19;;;;;;;6.27;4.30;;;19.20;75.20;;;19.68;56.62;95643.78;5046438;28;20521;-66
2022/07/19 04:36:46;;;;;;;8.30;3.00;;;19.20;75.40;;;19.72;56.79;95639.75;5046296;28;20479;-66
2022/07/19 04:39:13;;;;;;;10.27;3.80;;;19.20;75.60;;;19.75;56.59;95643.88;5044730;28;20468;-59
2022/07/19 04:41:41;;;;;;;7.47;3.40;;;19.20;75.60;;;19.79;56.95;95645.22;5052914;28;20474;-66
2022/07/19 04:44:08;;;;;;;8.87;4.30;;;19.30;75.90;;;19.82;56.64;95637.69;5047468;28;20456;-60
2022/07/19 04:46:35;;;;;;;10.73;4.10;;;19.30;75.80;;;19.88;57.02;95641.50;5046853;28;20563;-57
2022/07/19 04:49:04;;;;;;;12.33;5.37;;;19.40;76.40;;;19.94;56.89;95654.13;5049670;28;20991;-59
2022/07/19 04:51:31;;;;;;;9.57;4.27;;;19.40;77.40;;;20.02;56.66;95654.06;5050657;28;20502;-60
2022/07/19 04:53:58;;;;;;;3.50;3.30;;;19.50;76.30;;;20.10;56.69;95652.34;5048590;28;20535;-59
2022/07/19 04:56:25;;;;;;;5.20;4.30;;;19.60;76.10;;;20.15;56.23;95649.94;5046491;28;21093;-58
2022/07/19 04:58:53;;;;;;;8.20;3.93;;;19.60;75.70;;;20.20;56.24;95650.22;5047964;28;20816;-59
2022/07/19 05:01:20;;;;;;;7.80;4.83;;;19.70;75.60;;;20.24;56.40;95644.34;5046264;28;20480;-65
2022/07/19 05:03:47;;;;;;;6.80;3.80;;;19.70;75.60;;;20.31;55.79;95640.94;5045870;28;20541;-69
2022/07/19 05:06:16;;;;;;;4.67;4.27;;;19.80;75.70;;;20.36;56.13;95647.41;5048162;28;20859;-59
2022/07/19 05:08:43;;;;;;;8.40;4.43;;;19.80;76.00;;;20.39;55.93;95646.22;5046290;28;20524;-57
2022/07/19 05:11:10;;;;;;;4.43;4.03;;;19.90;76.20;;;20.44;56.12;95648.34;5047004;28;20541;-56
2022/07/19 05:13:37;;;;;;;8.80;4.13;;;19.90;75.80;;;20.49;55.63;95645.97;5046369;28;20448;-58
2022/07/19 05:16:05;;;;;;;5.40;3.03;;;20.00;75.90;;;20.56;55.98;95646.91;5046549;28;20472;-57
2022/07/19 05:18:32;;;;;;;8.17;3.80;;;20.00;75.70;;;20.62;55.81;95645.31;5043316;28;20470;-65
2022/07/19 05:21:00;;;;;;;9.83;4.40;;;20.10;75.50;;;20.68;55.73;95647.28;5046405;28;20538;-67
2022/07/19 05:23:28;;;;;;;8.30;4.30;;;20.20;75.70;;;20.76;55.61;95642.69;5046791;28;20875;-58
2022/07/19 05:25:55;;;;;;;9.37;5.97;;;20.20;75.70;;;20.89;55.54;95646.56;5044322;28;20496;-66
2022/07/19 05:28:23;;;;;;;8.07;4.50;;;20.30;76.10;;;21.05;55.60;95650.88;5046402;28;20880;-66
2022/07/19 05:30:50;;;;;;;6.53;5.33;;;20.40;76.00;;;21.25;55.46;95656.50;5045814;28;20472;-65
2022/07/19 05:33:17;;;;;;;9.67;5.33;;;20.60;75.80;;;21.44;55.12;95650.56;5045404;28;20455;-65
2022/07/19 05:35:44;;;;;;;8.53;5.57;;;20.80;75.80;;;21.68;54.96;95656.59;5046364;28;20933;-58
2022/07/19 05:38:12;;;;;;;5.80;3.43;;;21.00;75.50;;;21.95;54.05;95656.88;5046402;28;20447;-57
2022/07/19 05:40:40;;;;;;;5.80;4.50;;;21.20;74.50;;;22.18;53.72;95651.31;5045652;28;20475;-64
2022/07/19 05:43:07;;;;;;;18.97;4.93;;;21.50;74.00;;;22.43;53.39;95658.97;5045705;28;20471;-66
2022/07/19 05:45:35;;;;;;;22.37;4.33;;;21.70;73.30;;;22.67;52.51;95649.66;5045699;28;21019;-65
2022/07/19 05:48:02;;;;;;;9.87;4.10;;;22.00;72.50;;;22.90;52.53;95644.84;5045776;28;20513;-59
2022/07/19 05:50:29;;;;;;;17.10;4.40;;;22.20;72.10;;;23.14;51.96;95650.78;5045959;28;20467;-56
2022/07/19 05:52:56;;;;;;;13.13;5.77;;;22.40;70.90;;;23.36;50.84;95647.97;5045514;28;20445;-57
2022/07/19 05:55:23;;;;;;;19.20;5.03;;;22.70;69.70;;;23.57;50.45;95647.03;5045400;28;20459;-58
2022/07/19 05:57:52;;;;;;;11.57;3.93;;;22.90;69.80;;;23.79;50.17;95643.13;5044572;28;20460;-65
2022/07/19 06:00:19;;;;;;;10.77;5.00;;;23.10;69.30;;;23.99;49.85;95637.84;5045986;28;20452;-66
2022/07/19 06:02:46;;;;;;;13.70;3.40;;;23.30;68.70;;;24.21;49.67;95645.72;5045171;28;20470;-59
2022/07/19 06:05:13;;;;;;;8.30;3.47;;;23.50;68.10;;;24.39;48.96;95642.41;5045557;28;20935;-57
2022/07/19 06:07:41;;;;;;;11.03;3.40;;;23.60;67.10;;;24.58;49.07;95645.31;5045679;28;21011;-57
2022/07/19 06:10:09;;;;;;;13.10;3.47;;;23.80;66.60;;;24.78;48.87;95645.31;5045744;28;20835;-58
2022/07/19 06:12:37;;;;;;;9.93;3.40;;;24.00;66.00;;;24.94;47.84;95638.63;5042021;28;20821;-58
2022/07/19 06:15:07;;;;;;;13.03;3.00;;;24.20;65.30;;;25.12;47.65;95648.75;5045744;28;20509;-58
2022/07/19 06:17:34;;;;;;;3.03;2.33;;;24.40;64.50;;;25.27;47.18;95649.31;5042099;28;20575;-58
2022/07/19 06:20:01;;;;;;;4.03;2.30;;;24.50;63.80;;;25.43;46.55;95637.25;5045656;28;20456;-59
2022/07/19 06:22:31;;;;;;;9.80;3.20;;;24.70;63.40;;;25.62;46.67;95640.06;5045397;28;20552;-66
2022/07/19 06:24:58;;;;;;;9.03;2.43;;;24.80;62.80;;;25.74;45.79;95643.72;5045155;28;21168;-59
2022/07/19 06:27:25;;;;;;;5.77;2.10;;;25.00;62.30;;;25.85;45.86;95643.03;5045043;28;20915;-65
2022/07/19 06:29:52;;;;;;;11.03;2.30;;;25.10;61.30;;;25.99;45.45;95641.13;5045315;28;20517;-67
2022/07/19 06:32:21;;;;;;;4.30;1.80;;;25.20;60.80;;;26.15;45.09;95622.75;5044539;28;21028;-58
2022/07/19 06:34:48;;;;;;;6.50;2.33;;;25.40;60.60;;;26.35;44.69;95641.47;5045971;28;21036;-66
2022/07/19 06:37:15;;;;;;;8.90;2.30;;;25.60;60.20;;;26.52;44.28;95626.38;5046076;28;20471;-67
2022/07/19 06:39:43;;;;;;;2.73;1.90;;;25.70;59.40;;;26.66;43.96;95635.22;5046140;28;20451;-57
2022/07/19 06:42:10;;;;;;;6.20;2.10;;;25.90;59.20;;;26.77;43.75;95626.41;5045194;28;20900;-65
2022/07/19 06:44:37;;;;;;;6.90;2.00;;;26.00;58.90;;;26.94;43.41;95636.59;5046248;28;20513;-57
2022/07/19 06:47:04;;;;;;;22.53;3.00;;;26.10;58.50;;;27.12;43.36;95631.22;5045061;28;20621;-67
2022/07/19 06:49:33;;;;;;;17.80;3.70;;;26.30;58.00;;;27.28;42.97;95637.91;5045246;28;20512;-67
2022/07/19 06:52:01;;;;;;;5.63;2.40;;;26.50;57.80;;;27.45;41.79;95627.34;5045071;28;20533;-58
2022/07/19 06:54:28;;;;;;;5.00;2.63;;;26.60;56.60;;;27.55;41.88;95622.19;5046823;28;20454;-58
2022/07/19 06:56:55;;;;;;;4.10;2.47;;;26.70;56.50;;;27.69;41.61;95628.25;5042519;28;20464;-65
2022/07/19 06:59:23;;;;;;;4.13;2.77;;;26.90;56.60;;;27.82;41.71;95627.22;5049109;28;20823;-65
2022/07/19 07:01:50;;;;;;;11.77;1.93;;;27.00;56.10;;;27.92;41.20;95626.69;5048596;28;20467;-66
2022/07/19 07:04:17;;;;;;;2.97;2.30;;;27.10;55.90;;;27.99;40.79;95626.63;5048835;28;20455;-57
2022/07/19 07:06:45;;;;;;;8.40;2.37;;;27.20;54.80;;;28.02;40.74;95629.69;5048487;28;20938;-66
2022/07/19 07:09:13;;;;;;;8.47;2.63;;;27.20;54.60;;;28.06;40.26;95625.47;5048550;28;20971;-58
2022/07/19 07:11:40;;;;;;;4.90;2.40;;;27.30;54.70;;;28.19;40.51;95629.03;5048367;28;20479;-65
2022/07/19 07:14:07;;;;;;;5.33;2.30;;;27.40;54.70;;;28.34;40.12;95625.88;5048763;28;20520;-59
2022/07/19 07:16:34;;;;;;;9.67;2.33;;;27.50;54.10;;;28.41;39.43;95626.56;5048614;28;20462;-57
2022/07/19 07:19:01;;;;;;;6.77;2.70;;;27.60;53.40;;;28.53;39.49;95624.69;5045863;28;20524;-58
2022/07/19 07:21:29;;;;;;;2.47;2.27;;;27.70;53.30;;;28.68;38.90;95615.34;5048765;28;20471;-58
2022/07/19 07:23:58;;;;;;;4.90;2.50;;;27.90;53.10;;;28.88;39.16;95626.63;5048112;28;20462;-66
2022/07/19 07:26:25;;;;;;;8.60;2.60;;;28.00;53.00;;;29.08;37.94;95617.28;5048245;28;20494;-66
2022/07/19 07:28:52;;;;;;;3.60;1.80;;;28.20;52.20;;;29.25;37.67;95629.09;5048455;28;20905;-59
2022/07/19 07:31:20;;;;;;;8.10;2.27;;;28.40;51.60;;;29.26;37.11;95625.28;5048467;28;20471;-66
2022/07/19 07:33:47;;;;;;;10.73;2.00;;;28.50;50.10;;;29.23;36.84;95614.94;5048055;28;20451;-57
2022/07/19 07:36:14;;;;;;;4.13;1.93;;;28.50;49.90;;;29.37;37.11;95614.69;5048066;28;20525;-65
2022/07/19 07:38:41;;;;;;;3.50;2.17;;;28.60;49.90;;;29.42;36.41;95622.91;5048353;28;20758;-58
2022/07/19 07:41:10;;;;;;;4.20;2.00;;;28.60;48.90;;;29.48;36.05;95621.94;5047994;28;21030;-65
2022/07/19 07:43:37;;;;;;;2.80;2.20;;;28.70;49.30;;;29.46;35.55;95616.75;5044511;28;20847;-66
2022/07/19 07:46:05;;;;;;;6.73;2.23;;;28.70;48.80;;;29.51;36.29;95616.03;5048399;28;20475;-59
2022/07/19 07:48:32;;;;;;;4.30;1.90;;;28.70;48.80;;;29.62;35.26;95612.47;5047890;28;20455;-66
2022/07/19 07:50:59;;;;;;;4.90;2.10;;;28.80;48.40;;;29.79;35.61;95608.97;5048027;28;20483;-67
2022/07/19 07:53:26;;;;;;;5.63;2.10;;;29.00;48.00;;;29.91;35.00;95611.66;5047413;28;20961;-58
2022/07/19 07:55:54;;;;;;;2.37;2.13;;;29.10;47.50;;;30.04;34.16;95611.38;5048049;28;20487;-59
2022/07/19 07:58:22;;;;;;;4.70;2.17;;;29.20;46.70;;;30.17;34.39;95608.31;5040817;28;20493;-58
2022/07/19 08:00:49;;;;;;;3.23;2.23;;;29.30;46.40;;;30.38;33.05;95603.22;5047980;28;20486;-66
2022/07/19 08:03:17;;;;;;;2.20;2.00;;;29.50;44.80;;;30.60;32.57;95602.50;5046765;28;20501;-58
2022/07/19 08:05:47;;;;;;;7.97;2.23;;;29.70;44.70;;;30.77;31.62;95602.47;5047648;28;20485;-65
2022/07/19 08:08:14;;;;;;;1.80;1.70;;;29.90;43.90;;;30.73;31.62;95602.97;5047617;28;20293;-67
2022/07/19 08:10:41;;;;;;;1.90;1.60;;;30.00;42.60;;;30.66;30.50;95605.06;5048644;28;20479;-66
2022/07/19 08:13:08;;;;;;;2.37;2.17;;;29.90;42.10;;;30.61;31.46;95604.97;5044888;28;20255;-59
2022/07/19 08:15:38;;;;;;;2.13;1.10;;;29.90;42.50;;;30.66;30.22;95596.91;5047609;28;21051;-67
2022/07/19 08:18:05;;;;;;;2.27;1.77;;;29.90;42.00;;;30.70;30.40;95591.81;5044792;28;20447;-67
2022/07/19 08:20:32;;;;;;;8.37;1.87;;;29.90;42.20;;;30.83;30.57;95599.59;5047146;28;20475;-65
2022/07/19 08:23:00;;;;;;;2.90;2.10;;;30.00;42.10;;;30.91;30.16;95599.16;5047054;28;20489;-59
2022/07/19 08:25:27;;;;;;;2.10;1.90;;;30.10;41.50;;;30.96;30.70;95592.97;5047470;28;20201;-58
2022/07/19 08:27:54;;;;;;;1.67;1.57;;;30.20;41.50;;;31.15;30.44;95590.00;5045627;28;20224;-66
2022/07/19 08:30:22;;;;;;;2.07;1.80;;;30.30;41.50;;;31.21;29.24;95602.56;5049202;28;20204;-59
2022/07/19 08:32:50;;;;;;;1.93;1.60;;;30.40;40.20;;;31.10;28.88;95593.47;5046435;28;20455;-66
2022/07/19 08:35:18;;;;;;;2.30;1.43;;;30.40;39.60;;;31.02;29.35;95586.56;5048169;28;20201;-65
2022/07/19 08:37:45;;;;;;;1.80;1.70;;;30.40;39.60;;;31.05;28.47;95591.50;5048099;28;20447;-59
2022/07/19 08:40:12;;;;;;;17.43;1.80;;;30.40;39.60;;;31.14;29.17;95596.50;5046894;28;20455;-65
2022/07/19 08:42:39;;;;;;;3.83;2.43;;;30.40;40.40;;;31.22;29.97;95587.91;5047094;28;20451;-66
2022/07/19 08:45:08;;;;;;;5.17;2.10;;;30.50;40.00;;;31.44;29.15;95585.19;5047118;28;20452;-58
2022/07/19 08:47:36;;;;;;;5.97;1.90;;;30.70;40.60;;;31.66;29.02;95581.66;5047278;28;20322;-57
2022/07/19 08:50:07;;;;;;;4.20;2.10;;;30.80;39.80;;;31.81;29.37;95577.19;5046602;28;20212;-60
2022/07/19 08:52:34;;;;;;;9.40;1.90;;;31.00;40.00;;;31.93;28.56;95579.75;5047098;28;20232;-66
2022/07/19 08:55:01;;;;;;;2.77;1.97;;;31.10;39.30;;;32.14;28.90;95586.22;5047181;28;20201;-57
2022/07/19 09:00:14;;;;;;;6.60;1.70;;;31.40;39.40;;;32.14;28.80;95591.66;5046597;28;20251;-58
2022/07/19 09:02:41;;;;;;;4.03;1.63;;;31.40;39.20;;;32.09;28.12;95583.47;5042248;28;20208;-58
2022/07/19 09:05:12;;;;;;;4.60;1.80;;;31.40;38.80;;;32.17;29.12;95571.28;5047427;28;20254;-65
2022/07/19 09:07:39;;;;;;;1.50;1.40;;;31.40;39.10;;;32.33;28.64;95567.59;5046251;28;20252;-57
2022/07/19 09:10:17;;;;;;;8.33;2.13;;;31.50;39.30;;;32.57;27.91;95572.66;5046675;28;20278;-59
2022/07/19 09:13:04;;;;;;;5.60;2.58;;;31.80;38.60;;;32.74;27.58;95575.25;5043155;28;20738;-59
2022/07/19 09:15:46;;;;;;;3.20;1.90;;;31.90;38.10;;;32.76;27.60;95569.53;5046216;28;20217;-61
2022/07/19 09:18:16;;;;;;;3.15;1.83;;;32.00;38.40;;;32.79;28.55;95580.72;5042687;28;20193;-58
2022/07/19 09:20:45;;;;;;;2.10;1.87;;;32.00;38.70;;;32.76;28.04;95570.34;5045702;28;20617;-67
2022/07/19 09:23:13;;;;;;;3.77;1.87;;;31.90;38.50;;;32.79;28.18;95575.28;5046657;28;20204;-66
2022/07/19 09:25:41;;;;;;;1.63;1.53;;;32.00;38.70;;;32.95;28.54;95573.44;5046024;28;20722;-65
2022/07/19 09:28:09;;;;;;;5.43;2.13;;;32.10;38.80;;;33.10;27.76;95574.63;5041671;28;20314;-58
2022/07/19 09:30:39;;;;;;;3.13;1.70;;;32.30;38.20;;;33.07;27.71;95567.78;5042230;28;20275;-65
2022/07/19 09:33:09;;;;;;;3.45;1.73;;;32.30;38.10;;;33.01;27.74;95566.13;5044191;28;20201;-59
2022/07/19 09:35:42;;;;;;;3.25;2.05;;;32.30;37.70;;;32.88;27.18;95567.44;5042619;28;20282;-60
2022/07/19 09:38:22;;;;;;;7.13;2.23;;;32.20;37.40;;;32.72;27.63;95568.41;5045708;28;20200;-58
2022/07/19 09:40:50;;;;;;;4.50;2.10;;;32.10;37.40;;;32.64;27.92;95561.53;5043558;28;20294;-60
2022/07/19 09:43:18;;;;;;;10.98;2.85;;;32.00;38.10;;;32.68;28.35;95549.88;5045233;28;20197;-58
2022/07/19 09:45:46;;;;;;;4.40;2.38;;;32.00;38.60;;;32.76;28.15;95554.00;5045349;28;20221;-65
2022/07/19 09:48:13;;;;;;;6.35;2.28;;;32.00;38.50;;;32.68;28.47;95549.06;5045281;28;20710;-60
2022/07/19 09:50:40;;;;;;;2.40;1.83;;;31.90;38.60;;;32.50;28.36;95547.56;5044736;28;20238;-60
2022/07/19 09:53:07;;;;;;;2.40;2.30;;;31.80;38.60;;;32.35;28.41;95549.09;5045565;28;20262;-60
2022/07/19 09:55:36;;;;;;;4.75;2.20;;;31.70;38.70;;;32.48;28.58;95549.72;5045365;28;20230;-59
2022/07/19 09:58:03;;;;;;;7.57;1.80;;;31.80;38.80;;;32.72;28.08;95552.06;5042210;28;20197;-65
2022/07/19 10:00:31;;;;;;;5.13;2.10;;;31.90;38.80;;;32.93;28.35;95548.38;5044762;28;20201;-65
2022/07/19 10:03:00;;;;;;;2.60;1.88;;;32.10;38.70;;;32.98;27.85;95550.31;5045191;28;21095;-65
2022/07/19 10:05:28;;;;;;;4.65;2.67;;;32.20;38.30;;;32.88;27.47;95551.09;5044254;28;20241;-59
2022/07/19 10:07:56;;;;;;;5.57;2.45;;;32.10;37.50;;;32.74;28.04;95550.75;5041637;28;20228;-72
2022/07/19 10:10:24;;;;;;;7.57;2.00;;;32.00;38.40;;;32.72;28.21;95541.19;5045442;28;20201;-65
2022/07/19 10:12:53;;;;;;;2.28;2.03;;;32.00;38.50;;;32.90;28.49;95543.47;5045336;28;20250;-60
2022/07/19 10:15:20;;;;;;;6.10;2.00;;;32.10;38.80;;;33.14;27.99;95541.13;5046280;28;20248;-64
2022/07/19 10:18:02;;;;;;;4.45;2.60;;;32.20;38.30;;;33.46;28.01;95542.06;5042783;28;20284;-59
2022/07/19 10:20:30;;;;;;;3.05;2.22;;;32.60;39.00;;;33.74;27.50;95538.91;5044628;28;20300;-66
2022/07/19 10:22:59;;;;;;;2.45;2.25;;;32.80;37.90;;;33.93;27.51;95535.66;5045665;28;20689;-65
2022/07/19 10:25:37;;;;;;;2.78;2.15;;;33.10;37.40;;;34.08;26.93;95543.00;5044745;28;20201;-60